createdAt,value
2022-12-02T00:00:31.247Z,21.33
2022-12-02T00:02:49.433Z,21.88
2022-12-02T00:05:06.485Z,22.42
2022-12-02T00:07:23.923Z,22.55
2022-12-02T00:09:40.982Z,21.30
2022-12-02T00:11:58.238Z,22.05
2022-12-02T00:14:15.298Z,20.85
2022-12-02T00:16:32.377Z,21.23
2022-12-02T00:18:49.329Z,20.95
2022-12-02T00:21:06.425Z,21.33
2022-12-02T00:23:23.818Z,21.48
2022-12-02T00:25:41.811Z,21.25
2022-12-02T00:27:59.930Z,21.17
2022-12-02T00:30:17.297Z,21.00
2022-12-02T00:32:34.614Z,22.48
2022-12-02T00:34:52.026Z,22.05
2022-12-02T00:37:09.225Z,21.95
2022-12-02T00:39:26.280Z,21.30
2022-12-02T00:41:43.386Z,20.70
2022-12-02T00:44:00.330Z,22.30
2022-12-02T00:46:17.351Z,21.40
2022-12-02T00:48:34.774Z,20.90
2022-12-02T00:50:51.769Z,21.40
2022-12-02T00:53:09.846Z,21.88
2022-12-02T00:55:27.024Z,23.33
2022-12-02T00:57:44.346Z,20.80
2022-12-02T01:00:01.512Z,22.65
2022-12-02T01:02:19.134Z,21.25
2022-12-02T01:04:36.420Z,21.73
2022-12-02T01:06:53.442Z,21.30
2022-12-02T01:09:10.432Z,20.98
2022-12-02T01:11:27.886Z,21.50
2022-12-02T01:13:51.603Z,22.20
2022-12-02T01:16:09.608Z,21.80
2022-12-02T01:18:27.009Z,21.98
2022-12-02T01:20:44.391Z,20.55
2022-12-02T01:23:01.498Z,21.52
2022-12-02T01:25:18.494Z,21.92
2022-12-02T01:27:35.555Z,22.00
2022-12-02T01:29:52.960Z,21.30
2022-12-02T01:32:13.430Z,21.13
2022-12-02T01:34:31.752Z,22.05
2022-12-02T01:36:49.119Z,21.70
2022-12-02T01:39:07.142Z,20.40
2022-12-02T01:41:24.176Z,21.77
2022-12-02T01:43:41.498Z,21.83
2022-12-02T01:45:58.465Z,22.42
2022-12-02T01:48:15.889Z,22.67
2022-12-02T01:50:33.199Z,21.58
2022-12-02T01:52:54.957Z,21.58
2022-12-02T01:55:14.849Z,22.25
2022-12-02T01:57:32.216Z,22.88
2022-12-02T01:59:49.370Z,20.40
2022-12-02T02:02:06.731Z,21.45
2022-12-02T02:04:24.111Z,21.98
2022-12-02T02:06:41.097Z,21.58
2022-12-02T02:08:58.096Z,22.23
2022-12-02T02:11:15.224Z,22.13
2022-12-02T02:13:32.633Z,22.33
2022-12-02T02:15:49.915Z,21.55
2022-12-02T02:18:07.177Z,22.13
2022-12-02T02:20:24.189Z,22.63
2022-12-02T02:22:41.563Z,21.05
2022-12-02T02:24:58.681Z,21.85
2022-12-02T02:27:16.025Z,20.48
2022-12-02T02:29:33.008Z,22.38
2022-12-02T02:31:50.319Z,21.30
2022-12-02T02:34:07.604Z,21.67
2022-12-02T02:36:24.519Z,22.10
2022-12-02T02:38:42.573Z,19.85
2022-12-02T02:41:00.989Z,21.25
2022-12-02T02:43:18.241Z,22.00
2022-12-02T02:45:36.245Z,20.98
2022-12-02T02:47:53.356Z,22.48
2022-12-02T02:50:10.456Z,20.55
2022-12-02T02:52:27.728Z,21.80
2022-12-02T02:54:44.822Z,21.98
2022-12-02T02:57:02.119Z,21.10
2022-12-02T02:59:19.283Z,21.40
2022-12-02T03:01:36.539Z,20.55
2022-12-02T03:03:55.612Z,21.23
2022-12-02T03:06:12.968Z,19.60
2022-12-02T03:08:30.220Z,20.70
2022-12-02T03:10:47.321Z,21.17
2022-12-02T03:13:04.568Z,21.00
2022-12-02T03:15:22.612Z,20.50
2022-12-02T03:17:40.915Z,21.00
2022-12-02T03:19:57.852Z,20.77
2022-12-02T03:22:14.777Z,21.02
2022-12-02T03:24:31.859Z,21.85
2022-12-02T03:26:49.168Z,21.23
2022-12-02T03:29:06.294Z,20.63
2022-12-02T03:31:23.616Z,21.02
2022-12-02T03:33:40.611Z,20.65
2022-12-02T03:35:57.898Z,21.23
2022-12-02T03:38:14.903Z,22.30
2022-12-02T03:40:32.166Z,21.13
2022-12-02T03:42:49.259Z,20.65
2022-12-02T03:45:06.213Z,21.42
2022-12-02T03:47:23.549Z,21.50
2022-12-02T03:49:40.568Z,21.40
2022-12-02T03:51:57.557Z,21.42
2022-12-02T03:54:14.764Z,21.63
2022-12-02T03:56:31.758Z,22.77
2022-12-02T03:58:48.763Z,20.95
2022-12-02T04:01:05.854Z,22.25
2022-12-02T04:03:23.946Z,21.83
2022-12-02T04:05:43.931Z,22.13
2022-12-02T04:08:05.304Z,21.27
2022-12-02T04:10:22.703Z,21.88
2022-12-02T04:12:40.033Z,20.58
2022-12-02T04:14:57.341Z,22.73
2022-12-02T04:17:14.780Z,21.20
2022-12-02T04:19:31.894Z,22.23
2022-12-02T04:21:49.015Z,23.27
2022-12-02T04:24:06.306Z,23.13
2022-12-02T04:26:23.271Z,22.40
2022-12-02T04:28:40.341Z,23.05
2022-12-02T04:30:57.720Z,22.58
2022-12-02T04:33:14.757Z,23.33
2022-12-02T04:35:32.089Z,20.65
2022-12-02T04:37:49.195Z,22.67
2022-12-02T04:40:07.319Z,22.90
2022-12-02T04:42:25.364Z,24.00
2022-12-02T04:44:42.206Z,22.95
2022-12-02T04:46:59.499Z,24.27
2022-12-02T04:49:16.599Z,23.05
2022-12-02T04:51:33.480Z,22.50
2022-12-02T04:53:50.515Z,22.70
2022-12-02T04:56:07.811Z,24.05
2022-12-02T04:58:24.750Z,23.35
2022-12-02T05:00:41.739Z,24.63
2022-12-02T05:02:58.887Z,23.42
2022-12-02T05:05:16.294Z,23.80
2022-12-02T05:07:33.421Z,24.08
2022-12-02T05:09:50.724Z,23.98
2022-12-02T05:12:07.665Z,22.63
2022-12-02T05:14:24.994Z,23.70
2022-12-02T05:16:42.990Z,23.10
2022-12-02T05:18:59.976Z,22.55
2022-12-02T05:21:16.986Z,22.52
2022-12-02T05:23:34.302Z,22.65
2022-12-02T05:25:51.335Z,23.48
2022-12-02T05:28:08.376Z,23.67
2022-12-02T05:30:25.705Z,23.42
2022-12-02T05:32:42.741Z,23.63
2022-12-02T05:35:00.034Z,23.05
2022-12-02T05:37:17.295Z,23.23
2022-12-02T05:39:34.352Z,23.85
2022-12-02T05:41:51.587Z,23.52
2022-12-02T05:44:08.639Z,22.98
2022-12-02T05:46:25.987Z,23.65
2022-12-02T05:48:43.029Z,24.17
2022-12-02T05:51:00.333Z,23.98
2022-12-02T05:53:17.629Z,24.13
2022-12-02T05:55:34.539Z,23.42
2022-12-02T05:57:51.754Z,23.52
2022-12-02T06:00:08.984Z,23.70
2022-12-02T06:02:26.279Z,22.50
2022-12-02T06:04:43.329Z,22.88
2022-12-02T06:07:00.503Z,22.80
2022-12-02T06:09:17.747Z,23.45
2022-12-02T06:11:34.745Z,23.95
2022-12-02T06:13:51.792Z,24.42
2022-12-02T06:16:09.906Z,23.67
2022-12-02T06:18:26.934Z,23.27
2022-12-02T06:20:44.279Z,23.88
2022-12-02T06:23:02.381Z,23.13
2022-12-02T06:25:19.316Z,22.70
2022-12-02T06:27:36.369Z,24.48
2022-12-02T06:29:54.209Z,24.27
2022-12-02T06:32:11.392Z,24.25
2022-12-02T06:34:28.387Z,23.67
2022-12-02T06:36:45.780Z,24.58
2022-12-02T06:39:03.042Z,23.85
2022-12-02T06:41:19.981Z,23.40
2022-12-02T06:43:37.051Z,23.42
2022-12-02T06:45:54.444Z,23.88
2022-12-02T06:48:11.515Z,23.02
2022-12-02T06:50:28.923Z,23.55
2022-12-02T06:52:46.000Z,24.20
2022-12-02T06:55:02.895Z,26.27
2022-12-02T06:57:19.851Z,28.38
2022-12-02T06:59:36.764Z,49.15
2022-12-02T07:01:54.180Z,45.47
2022-12-02T07:04:11.166Z,45.28
2022-12-02T07:06:28.146Z,42.97
2022-12-02T07:08:45.117Z,37.00
2022-12-02T07:11:02.037Z,72.38
2022-12-02T07:13:18.976Z,47.53
2022-12-02T07:15:36.312Z,43.88
2022-12-02T07:17:53.346Z,29.77
2022-12-02T07:20:10.681Z,74.00
2022-12-02T07:22:27.746Z,77.35
2022-12-02T07:24:44.777Z,41.28
2022-12-02T07:27:05.747Z,42.63
2022-12-02T07:29:23.029Z,28.55
2022-12-02T07:31:40.108Z,28.17
2022-12-02T07:33:57.406Z,25.52
2022-12-02T07:36:14.438Z,24.75
2022-12-02T07:39:04.022Z,25.00
2022-12-02T07:41:08.624Z,25.65
2022-12-02T07:43:25.884Z,25.75
2022-12-02T07:45:43.175Z,25.42
2022-12-02T07:48:00.186Z,25.10
2022-12-02T07:50:17.199Z,29.50
2022-12-02T07:52:34.408Z,30.55
2022-12-02T07:54:52.924Z,27.55
2022-12-02T07:57:10.203Z,27.30
2022-12-02T07:59:27.457Z,26.02
2022-12-02T08:01:44.467Z,25.75
2022-12-02T08:04:01.825Z,27.70
2022-12-02T08:06:19.177Z,27.67
2022-12-02T08:08:36.154Z,25.25
2022-12-02T08:10:53.435Z,26.10
2022-12-02T08:13:10.391Z,25.65
2022-12-02T08:15:27.690Z,25.00
2022-12-02T08:17:45.001Z,24.33
2022-12-02T08:20:02.091Z,23.27
2022-12-02T08:22:20.298Z,24.58
2022-12-02T08:24:37.604Z,23.60
2022-12-02T08:26:54.699Z,24.88
2022-12-02T08:29:12.035Z,22.58
2022-12-02T08:31:29.370Z,31.08
2022-12-02T08:33:46.322Z,26.15
2022-12-02T08:36:03.254Z,26.75
2022-12-02T08:38:20.182Z,23.90
2022-12-02T08:40:37.056Z,33.05
2022-12-02T08:42:54.013Z,31.38
2022-12-02T08:45:10.928Z,28.33
2022-12-02T08:47:27.829Z,26.90
2022-12-02T08:49:44.802Z,25.58
2022-12-02T08:52:03.038Z,24.25
2022-12-02T08:54:20.096Z,22.20
2022-12-02T08:56:37.346Z,19.30
2022-12-02T08:58:54.271Z,19.80
2022-12-02T09:01:11.643Z,20.55
2022-12-02T09:03:28.723Z,19.02
2022-12-02T09:05:46.069Z,19.80
2022-12-02T09:08:03.084Z,21.15
2022-12-02T09:10:20.203Z,20.67
2022-12-02T09:12:37.207Z,20.70
2022-12-02T09:14:54.293Z,20.35
2022-12-02T09:17:11.485Z,20.33
2022-12-02T09:19:28.428Z,19.67
2022-12-02T09:21:45.414Z,18.10
2022-12-02T09:24:02.656Z,20.52
2022-12-02T09:26:19.884Z,19.95
2022-12-02T09:28:36.894Z,19.63
2022-12-02T09:30:54.243Z,18.02
2022-12-02T09:33:11.492Z,18.52
2022-12-02T09:35:29.496Z,19.23
2022-12-02T09:37:46.864Z,17.92
2022-12-02T09:40:04.902Z,18.15
2022-12-02T09:42:22.863Z,16.38
2022-12-02T09:44:39.893Z,19.40
2022-12-02T09:46:56.958Z,19.02
2022-12-02T09:49:14.050Z,17.27
2022-12-02T09:51:31.333Z,16.88
2022-12-02T09:53:48.251Z,17.58
2022-12-02T09:56:05.367Z,27.17
2022-12-02T09:58:22.318Z,18.75
2022-12-02T10:00:39.684Z,17.52
2022-12-02T10:02:56.872Z,20.20
2022-12-02T10:05:13.822Z,18.17
2022-12-02T10:07:31.881Z,17.77
2022-12-02T10:09:48.998Z,15.20
2022-12-02T10:12:06.242Z,15.23
2022-12-02T10:14:23.550Z,14.48
2022-12-02T10:16:40.547Z,14.75
2022-12-02T10:18:57.913Z,13.45
2022-12-02T10:21:15.130Z,14.57
2022-12-02T10:23:37.851Z,13.63
2022-12-02T10:25:56.550Z,13.50
2022-12-02T10:28:13.598Z,13.48
2022-12-02T10:30:30.914Z,13.57
2022-12-02T10:32:47.881Z,13.40
2022-12-02T10:35:05.135Z,12.32
2022-12-02T10:37:22.411Z,13.45
2022-12-02T10:39:40.440Z,12.38
2022-12-02T10:41:57.725Z,12.43
2022-12-02T10:44:14.671Z,11.95
2022-12-02T10:46:32.038Z,12.57
2022-12-02T10:48:49.411Z,12.50
2022-12-02T10:51:06.472Z,11.55
2022-12-02T10:53:23.487Z,11.15
2022-12-02T10:55:40.495Z,12.10
2022-12-02T10:57:57.827Z,11.80
2022-12-02T11:00:14.817Z,11.80
2022-12-02T11:02:32.177Z,10.73
2022-12-02T11:04:49.439Z,11.15
2022-12-02T11:07:06.576Z,11.02
2022-12-02T11:09:40.704Z,10.35
2022-12-02T11:11:58.656Z,10.25
2022-12-02T11:14:16.924Z,9.85
2022-12-02T11:16:34.202Z,9.50
2022-12-02T11:18:51.294Z,8.80
2022-12-02T11:21:09.274Z,9.10
2022-12-02T11:23:26.293Z,9.10
2022-12-02T11:25:43.268Z,8.95
2022-12-02T11:28:00.486Z,9.18
2022-12-02T11:30:17.925Z,8.48
2022-12-02T11:32:34.931Z,8.50
2022-12-02T11:37:30.341Z,7.70
2022-12-02T11:39:52.744Z,8.05
2022-12-02T11:42:10.099Z,7.30
2022-12-02T11:44:27.005Z,7.80
2022-12-02T11:46:44.092Z,7.45
2022-12-02T11:49:01.139Z,6.68
2022-12-02T11:51:18.496Z,7.43
2022-12-02T11:53:35.431Z,7.05
2022-12-02T11:55:52.352Z,6.75
2022-12-02T11:58:10.235Z,7.20
2022-12-02T12:00:29.312Z,7.22
2022-12-02T12:02:48.489Z,7.07
2022-12-02T12:05:05.737Z,6.90
2022-12-02T12:07:22.713Z,6.85
2022-12-02T12:09:39.945Z,7.15
2022-12-02T12:11:56.909Z,6.82
2022-12-02T12:14:13.875Z,7.53
2022-12-02T12:16:31.058Z,6.60
2022-12-02T12:18:48.075Z,7.50
2022-12-02T12:21:05.001Z,7.35
2022-12-02T12:23:21.904Z,6.82
2022-12-02T12:25:38.921Z,7.05
2022-12-02T12:27:55.853Z,7.57
2022-12-02T12:30:12.843Z,6.63
2022-12-02T12:32:30.116Z,6.80
2022-12-02T12:34:47.025Z,6.57
2022-12-02T12:37:04.282Z,6.10
2022-12-02T12:39:21.289Z,6.38
2022-12-02T12:44:15.154Z,5.90
2022-12-02T12:46:32.325Z,6.35
2022-12-02T12:48:49.351Z,6.72
2022-12-02T12:51:06.413Z,6.68
2022-12-02T12:53:23.451Z,6.72
2022-12-02T12:55:40.687Z,6.93
2022-12-02T12:57:57.996Z,6.90
2022-12-02T13:00:14.936Z,7.22
2022-12-02T13:02:31.924Z,6.70
2022-12-02T13:04:48.982Z,7.03
2022-12-02T13:07:06.056Z,6.50
2022-12-02T13:09:23.118Z,6.90
2022-12-02T13:11:40.101Z,6.15
2022-12-02T13:13:57.343Z,6.55
2022-12-02T13:16:15.514Z,6.88
2022-12-02T13:18:32.586Z,6.70
2022-12-02T13:20:49.494Z,6.55
2022-12-02T13:23:06.416Z,7.25
2022-12-02T13:25:23.720Z,7.18
2022-12-02T13:27:40.951Z,6.57
2022-12-02T13:29:58.289Z,7.43
2022-12-02T13:32:15.211Z,7.05
2022-12-02T13:34:32.224Z,7.57
2022-12-02T13:36:49.152Z,7.90
2022-12-02T13:39:06.824Z,7.38
2022-12-02T13:41:25.781Z,7.95
2022-12-02T13:43:42.647Z,7.85
2022-12-02T13:45:59.994Z,7.82
2022-12-02T13:48:18.242Z,7.18
2022-12-02T13:50:35.350Z,8.07
2022-12-02T13:52:52.621Z,8.40
2022-12-02T13:55:09.885Z,7.50
2022-12-02T13:57:26.859Z,7.68
2022-12-02T13:59:44.129Z,7.32
2022-12-02T14:02:02.543Z,8.00
2022-12-02T14:04:20.713Z,8.02
2022-12-02T14:06:37.722Z,8.57
2022-12-02T14:08:55.116Z,8.77
2022-12-02T14:11:12.047Z,7.78
2022-12-02T14:13:29.728Z,8.32
2022-12-02T14:15:46.681Z,8.52
2022-12-02T14:18:03.808Z,8.88
2022-12-02T14:20:21.122Z,8.73
2022-12-02T14:22:38.154Z,9.35
2022-12-02T14:24:56.358Z,9.20
2022-12-02T14:27:13.439Z,8.75
2022-12-02T14:29:30.409Z,8.43
2022-12-02T14:31:47.490Z,8.65
2022-12-02T14:34:13.599Z,9.40
2022-12-02T14:36:32.416Z,10.98
2022-12-02T14:38:49.616Z,10.48
2022-12-02T14:41:06.639Z,9.23
2022-12-02T14:43:23.585Z,8.93
2022-12-02T14:45:40.599Z,8.52
2022-12-02T14:47:58.819Z,9.00
2022-12-02T14:50:17.188Z,8.70
2022-12-02T14:52:34.175Z,7.53
2022-12-02T14:54:52.631Z,8.63
2022-12-02T14:57:10.278Z,9.10
2022-12-02T14:59:27.282Z,9.90
2022-12-02T15:01:44.380Z,9.20
2022-12-02T15:04:02.408Z,9.45
2022-12-02T15:06:19.687Z,9.27
2022-12-02T15:08:36.782Z,9.50
2022-12-02T15:10:53.720Z,9.10
2022-12-02T15:13:10.630Z,9.20
2022-12-02T15:15:38.214Z,8.75
2022-12-02T15:17:56.536Z,8.52
2022-12-02T15:20:13.870Z,8.35
2022-12-02T15:22:30.802Z,13.95
2022-12-02T15:24:47.823Z,11.95
2022-12-02T15:27:04.859Z,10.25
2022-12-02T15:29:21.774Z,9.90
2022-12-02T15:31:38.924Z,9.50
2022-12-02T15:33:55.822Z,9.70
2022-12-02T15:36:12.804Z,9.50
2022-12-02T15:38:30.020Z,9.57
2022-12-02T15:40:48.780Z,9.57
2022-12-02T15:43:05.864Z,8.77
2022-12-02T15:45:23.055Z,8.23
2022-12-02T15:47:40.093Z,8.73
2022-12-02T15:49:57.119Z,8.20
2022-12-02T15:52:14.356Z,8.88
2022-12-02T15:54:31.465Z,8.68
2022-12-02T15:56:54.114Z,8.65
2022-12-02T15:59:11.393Z,9.32
2022-12-02T16:01:28.362Z,9.30
2022-12-02T16:03:45.437Z,7.90
2022-12-02T16:06:03.344Z,30.40
2022-12-02T16:08:20.384Z,22.02
2022-12-02T16:10:37.485Z,12.80
2022-12-02T16:12:54.736Z,12.38
2022-12-02T16:15:12.967Z,9.68
2022-12-02T16:17:30.365Z,10.13
2022-12-02T16:19:48.404Z,11.48
2022-12-02T16:22:05.373Z,11.30
2022-12-02T16:24:22.320Z,10.60
2022-12-02T16:26:39.305Z,10.55
2022-12-02T16:28:56.272Z,9.52
2022-12-02T16:31:13.328Z,9.85
2022-12-02T16:33:30.647Z,10.85
2022-12-02T16:35:47.592Z,10.48
2022-12-02T16:38:05.248Z,10.13
2022-12-02T16:40:22.987Z,9.98
2022-12-02T16:42:40.017Z,9.98
2022-12-02T16:44:57.287Z,10.00
2022-12-02T16:47:14.825Z,10.30
2022-12-02T16:49:31.723Z,11.60
2022-12-02T16:51:48.742Z,10.35
2022-12-02T16:54:05.659Z,11.20
2022-12-02T16:56:23.113Z,11.82
2022-12-02T16:58:40.399Z,13.35
2022-12-02T17:00:58.760Z,14.07
2022-12-02T17:03:15.916Z,13.82
2022-12-02T17:05:33.956Z,13.02
2022-12-02T17:07:51.055Z,13.07
2022-12-02T17:10:08.093Z,13.52
2022-12-02T17:12:25.105Z,12.52
2022-12-02T17:14:43.263Z,14.00
2022-12-02T17:17:06.017Z,14.35
2022-12-02T17:19:31.508Z,13.75
2022-12-02T17:21:49.747Z,13.95
2022-12-02T17:24:06.781Z,13.05
2022-12-02T17:26:25.028Z,14.35
2022-12-02T17:28:42.005Z,14.48
2022-12-02T17:30:59.123Z,13.45
2022-12-02T17:33:16.376Z,13.27
2022-12-02T17:35:33.338Z,12.82
2022-12-02T17:37:50.515Z,13.23
2022-12-02T17:40:07.790Z,13.15
2022-12-02T17:42:25.094Z,11.77
2022-12-02T17:44:42.168Z,11.35
2022-12-02T17:47:00.355Z,12.13
2022-12-02T17:49:18.632Z,13.15
2022-12-02T17:51:35.603Z,11.88
2022-12-02T17:53:53.145Z,11.70
2022-12-02T17:56:10.084Z,11.25
2022-12-02T17:58:27.371Z,10.65
2022-12-02T18:00:44.447Z,13.20
2022-12-02T18:03:01.527Z,13.10
2022-12-02T18:05:19.744Z,14.68
2022-12-02T18:07:36.699Z,14.90
2022-12-02T18:09:53.797Z,13.10
2022-12-02T18:12:11.067Z,12.13
2022-12-02T18:14:28.868Z,11.40
2022-12-02T18:16:46.364Z,10.90
2022-12-02T18:19:03.502Z,10.70
2022-12-02T18:21:21.805Z,11.02
2022-12-02T18:23:38.855Z,10.10
2022-12-02T18:25:56.145Z,10.15
2022-12-02T18:28:13.377Z,9.73
2022-12-02T18:30:30.348Z,10.00
2022-12-02T18:32:48.182Z,9.70
2022-12-02T18:35:05.486Z,9.02
2022-12-02T18:37:22.550Z,10.13
2022-12-02T18:39:39.537Z,9.20
2022-12-02T18:41:57.824Z,9.73
2022-12-02T18:44:14.735Z,9.05
2022-12-02T18:46:32.739Z,9.30
2022-12-02T18:48:49.835Z,22.25
2022-12-02T18:51:07.135Z,18.20
2022-12-02T18:53:24.129Z,14.13
2022-12-02T18:55:41.237Z,12.00
2022-12-02T18:57:58.204Z,12.88
2022-12-02T19:00:15.151Z,11.95
2022-12-02T19:02:32.467Z,10.75
2022-12-02T19:04:52.530Z,9.85
2022-12-02T19:07:09.789Z,10.95
2022-12-02T19:09:27.103Z,10.52
2022-12-02T19:11:44.055Z,11.18
2022-12-02T19:14:00.911Z,12.10
2022-12-02T19:16:18.189Z,14.50
2022-12-02T19:18:35.308Z,12.82
2022-12-02T19:20:52.338Z,13.43
2022-12-02T19:23:09.629Z,12.40
2022-12-02T19:25:26.525Z,11.80
2022-12-02T19:27:59.362Z,12.02
2022-12-02T19:30:16.608Z,10.70
2022-12-02T19:32:33.490Z,10.98
2022-12-02T19:34:50.947Z,10.18
2022-12-02T19:37:08.273Z,10.18
2022-12-02T19:39:25.613Z,10.23
2022-12-02T19:41:43.298Z,10.13
2022-12-02T19:44:03.881Z,11.30
2022-12-02T19:46:22.687Z,10.32
2022-12-02T19:48:39.663Z,10.40
2022-12-02T19:50:56.698Z,10.88
2022-12-02T19:53:13.791Z,11.38
2022-12-02T19:55:30.763Z,11.75
2022-12-02T19:57:47.706Z,10.80
2022-12-02T20:00:04.845Z,10.73
2022-12-02T20:02:22.177Z,10.80
2022-12-02T20:04:42.232Z,10.10
2022-12-02T20:06:59.902Z,10.25
2022-12-02T20:09:16.962Z,10.82
2022-12-02T20:11:34.092Z,10.23
2022-12-02T20:13:51.098Z,10.65
2022-12-02T20:16:08.188Z,10.43
2022-12-02T20:18:25.587Z,10.15
2022-12-02T20:20:42.682Z,10.20
2022-12-02T20:22:59.753Z,9.50
2022-12-02T20:25:16.754Z,10.02
2022-12-02T20:27:33.741Z,9.60
2022-12-02T20:29:51.142Z,9.63
2022-12-02T20:32:08.386Z,10.02
2022-12-02T20:34:29.948Z,9.60
2022-12-02T20:36:49.960Z,9.90
2022-12-02T20:39:07.251Z,9.50
2022-12-02T20:41:24.239Z,8.63
2022-12-02T20:43:41.477Z,9.60
2022-12-02T20:45:58.523Z,9.50
2022-12-02T20:48:15.558Z,9.23
2022-12-02T20:50:33.851Z,9.38
2022-12-02T20:52:54.203Z,10.00
2022-12-02T20:55:11.578Z,10.25
2022-12-02T20:57:30.875Z,10.48
2022-12-02T20:59:47.850Z,10.43
2022-12-02T21:02:05.008Z,10.43
2022-12-02T21:04:22.382Z,10.55
2022-12-02T21:06:40.703Z,9.50
2022-12-02T21:09:00.275Z,10.20
2022-12-02T21:11:17.244Z,9.77
2022-12-02T21:13:35.442Z,9.88
2022-12-02T21:15:52.435Z,9.73
2022-12-02T21:18:10.446Z,8.98
2022-12-02T21:20:27.431Z,9.80
2022-12-02T21:22:44.351Z,9.23
2022-12-02T21:25:01.951Z,9.50
2022-12-02T21:27:19.872Z,9.48
2022-12-02T21:29:36.986Z,9.05
2022-12-02T21:31:53.939Z,9.70
2022-12-02T21:34:11.012Z,9.55
2022-12-02T21:36:28.344Z,9.43
2022-12-02T21:38:45.650Z,9.20
2022-12-02T21:41:02.967Z,9.57
2022-12-02T21:43:20.032Z,9.52
2022-12-02T21:45:37.185Z,9.27
2022-12-02T21:47:54.182Z,9.45
2022-12-02T21:50:11.580Z,8.50
2022-12-02T21:52:28.634Z,9.57
2022-12-02T21:54:45.769Z,8.88
2022-12-02T21:57:03.067Z,8.52
2022-12-02T21:59:19.967Z,8.60
2022-12-02T22:01:37.891Z,8.63
2022-12-02T22:03:54.954Z,8.85
2022-12-02T22:06:11.915Z,10.15
2022-12-02T22:08:28.959Z,9.50
2022-12-02T22:10:45.964Z,10.40
2022-12-02T22:13:03.037Z,9.52
2022-12-02T22:15:20.337Z,9.18
2022-12-02T22:17:37.393Z,8.45
2022-12-02T22:19:54.847Z,7.70
2022-12-02T22:22:11.950Z,8.02
2022-12-02T22:24:29.419Z,8.13
2022-12-02T22:26:46.567Z,7.93
2022-12-02T22:29:04.529Z,8.45
2022-12-02T22:31:21.467Z,9.15
2022-12-02T22:33:38.556Z,8.05
2022-12-02T22:35:55.559Z,7.65
2022-12-02T22:38:12.516Z,8.45
2022-12-02T22:40:30.207Z,7.97
2022-12-02T22:42:47.593Z,7.85
2022-12-02T22:45:04.873Z,7.78
2022-12-02T22:47:21.894Z,8.32
2022-12-02T22:49:38.876Z,8.23
2022-12-02T22:51:56.019Z,8.15
2022-12-02T22:54:12.977Z,8.18
2022-12-02T22:56:31.116Z,8.55
2022-12-02T22:58:48.417Z,8.25
2022-12-02T23:01:05.748Z,7.97
2022-12-02T23:03:22.811Z,8.40
2022-12-02T23:05:39.715Z,7.50
2022-12-02T23:07:57.303Z,8.32
2022-12-02T23:10:14.305Z,7.55
2022-12-02T23:12:31.272Z,7.40
2022-12-02T23:14:49.302Z,8.48
2022-12-02T23:17:06.430Z,7.90
2022-12-02T23:19:23.404Z,7.32
2022-12-02T23:21:40.358Z,7.82
2022-12-02T23:23:58.633Z,7.95
2022-12-02T23:26:15.963Z,8.68
2022-12-02T23:28:33.036Z,7.60
2022-12-02T23:30:50.123Z,8.10
2022-12-02T23:33:07.817Z,7.93
2022-12-02T23:35:24.722Z,7.07
2022-12-02T23:37:41.747Z,8.20
2022-12-02T23:39:59.045Z,7.55
2022-12-02T23:42:16.137Z,8.13
2022-12-02T23:44:33.102Z,8.80
2022-12-02T23:46:50.416Z,7.90
2022-12-02T23:49:07.584Z,7.40
2022-12-02T23:51:27.271Z,7.38
2022-12-02T23:53:44.438Z,7.32
2022-12-02T23:56:01.505Z,7.72
2022-12-02T23:58:21.364Z,8.32
